Mozart, Arkansas
Current Conditions -  °F | °C
As of 9:35 PM on Friday 31 Oct 2014 (Local Time) from KBVX Reporting Station
Clear Clear  
Wind Chill:   Ceiling: Unl
Heat Index:   Visibility: 10mi
Dew Point: -6°   Wind: 5mph
Humidity: 45%   Direction: 330°NNW
Pressure: 30.38"   Gusts: NA
Location:  35.7627°N, 92.308°W
Report Text: KBVX 010235Z AUTO 33004KT 10SM CLR 05/M06 A3038 RMK AO1
Loading
Personal Weather Stations






























Interactive Weather Map
Tropical Storm Tracking
New forecast layout! Learn more

10-Day Weather Forecast

Advertisements
Track Severe Weather on mobile